Aérodrome :
LOGIN :

S'inscrire | Disclaimer

   EN    FR    IT 

 










Légende :    VFR   VFR Marginal   IFR   IFR Intensif   IFR Très Intensif
Visi : 
Plafond : 
>= 8 km
>= 3000ft
5 à 8 km
1000 à 3000 ft
1500m à 5 km
500 à 1000 ft
800 à 1500m
200 à 500 ft
< 800m
< 200 ft
Symboles :   Orages  Brouillard  Fortes neiges  Fortes précipitations  Vent > 20 kt
SIGMETs :   Divers  Orages  Givrage  Turbulence  Onde Orograph.  Cendres Volcan.







- Altitude de l'aérodrome : 74 ft
- Code IATA : EIN


EHEH - Eindhoven

DERNIER METAR :
  • 161510Z AUTO 25015G25KT 210V290 9999 DZRA FEW015CB SCT032 BKN037 04/01 Q0994 BLU 27012KT 9999 SCT020 BKN040 TEMPO 28015G28KT 4000 SHRA SCT010 SCT015CB BKN020

METARs EXPIRÉS :
  • 161455Z AUTO 25013KT 210V280 9999 FEW015CB SCT027 BKN038 04/01 Q0994 BLU 27012KT 9999 SCT020 BKN040 TEMPO 28015G28KT 4000 SHRA SCT010 SCT015CB BKN020
  • 161450Z AUTO 26012KT 220V290 9999 RA FEW015CB SCT026 BKN030 04/01 Q0994 BLU 27012KT 9999 SCT020 BKN040 TEMPO 28015G28KT 4000 SHRA SCT010 SCT015CB BKN020
  • 161425Z AUTO 25013KT 220V290 9999 FEW018CB SCT028 BKN100 05/01 Q0994 BLU 27012KT 9999 SCT020 BKN040 TEMPO 28015G28KT 4000 SHRA SCT010 SCT015CB BKN020
  • 161355Z AUTO 26011KT 220V300 9999 FEW031 SCT057 06/01 Q0994 BLU 27012KT 9999 SCT020 BKN040 TEMPO 28015G28KT 4000 SHRA SCT010 SCT015CB BKN020
  • 161325Z AUTO 27012KT 210V300 9999 FEW029 SCT034 BKN042 06/01 Q0994 BLU 27012KT 9999 SCT020 BKN040 TEMPO 28015G28KT 4000 SHRA SCT010 SCT015CB BKN020
  • 161255Z AUTO 28014G25KT 230V320 9999 FEW017/// 05/01 Q0994 BLU 27012KT 9999 SCT020 BKN040 TEMPO 28015G28KT 4000 SHRA SCT010 SCT015CB BKN020 RMK CB INFO NOT AVBL
  • 161225Z AUTO 26010KT 200V300 9999 FEW015CB SCT031 BKN110 05/02 Q0994 BLU 27012KT 9999 SCT020 BKN040 TEMPO 28015G28KT 4000 SHRA SCT010 SCT015CB BKN020

TAF TAF EHEH
Valide du 16 à 12h jusqu'au 17 à 18h UTC


161129Z 1612/1718 26013KT 9999 SCT020 BKN030
TEMPO 1612/1616 27015G25KT 4000 SHRA SCT010 SCT018CB BKN022
TEMPO 1615/1711 27014G24KT 3000 SHRASN SCT008 SCT015CB BKN020
TEMPO 1701/1707 1000 -SNSH SCT003 SCT012CB BKN020
PROB30
TEMPO 1701/1704 TSRASNGS
TEMPO 1710/1718 4000 26015G27KT SHRA SCT010 SCT018CB BKN022
Pas de NOTAMs connus pour ce terrain.



MET'MAP, la Météo Aéronautique d'un coup d'oeil ! - Copyright ORBIFLY Décembre 2007 - Disclaimer

ORBIFLY MET'MAP TEAM :

Programmation & Développement : Alexandra Zaïnal
Conception & Développement : Baudouin d'Aumeries
Co-Programmation & Développement : Marc-Olivier Méhu
Soutien technique & logistique : Manuel Goepfert

Contact : metmap@orbifly.com




SOURCES & CREDITS :

   NOAA